createdAt,value
2023-02-12T00:01:12.857Z,25.85
2023-02-12T00:03:41.927Z,25.27
2023-02-12T00:06:10.603Z,31.85
2023-02-12T00:08:39.373Z,28.30
2023-02-12T00:11:16.256Z,26.35
2023-02-12T00:13:44.442Z,27.05
2023-02-12T00:16:14.984Z,30.55
2023-02-12T00:18:43.305Z,29.15
2023-02-12T00:21:11.175Z,26.77
2023-02-12T00:23:41.177Z,26.25
2023-02-12T00:26:14.150Z,27.23
2023-02-12T00:28:43.476Z,26.60
2023-02-12T00:31:14.328Z,26.67
2023-02-12T00:33:42.539Z,24.23
2023-02-12T00:36:13.974Z,23.92
2023-02-12T00:38:41.976Z,29.52
2023-02-12T00:41:11.584Z,24.05
2023-02-12T00:43:39.406Z,26.87
2023-02-12T00:46:09.044Z,24.27
2023-02-12T00:48:37.031Z,23.30
2023-02-12T00:51:04.971Z,25.58
2023-02-12T00:53:33.577Z,26.02
2023-02-12T00:56:01.592Z,28.58
2023-02-12T00:58:29.148Z,29.00
2023-02-12T01:00:56.988Z,26.73
2023-02-12T01:03:25.154Z,28.50
2023-02-12T01:05:54.232Z,24.67
2023-02-12T01:08:22.611Z,22.77
2023-02-12T01:10:59.582Z,19.63
2023-02-12T01:13:30.439Z,20.52
2023-02-12T01:16:19.244Z,19.25
2023-02-12T01:18:48.226Z,18.98
2023-02-12T01:21:21.930Z,21.48
2023-02-12T01:23:50.986Z,12.40
2023-02-12T01:26:20.205Z,15.75
2023-02-12T01:28:59.101Z,15.95
2023-02-12T01:31:30.521Z,17.67
2023-02-12T01:33:59.684Z,16.37
2023-02-12T01:36:29.429Z,15.27
2023-02-12T01:38:59.224Z,13.18
2023-02-12T01:41:31.194Z,14.02
2023-02-12T01:44:25.690Z,16.20
2023-02-12T01:46:59.477Z,12.88
2023-02-12T01:49:30.771Z,13.97
2023-02-12T01:52:04.794Z,14.00
2023-02-12T01:54:36.060Z,13.88
2023-02-12T01:57:06.389Z,12.20
2023-02-12T01:59:36.683Z,11.38
2023-02-12T02:02:05.806Z,12.67
2023-02-12T02:04:40.339Z,11.70
2023-02-12T02:07:09.933Z,12.35
2023-02-12T02:09:39.777Z,15.27
2023-02-12T02:12:26.924Z,13.93
2023-02-12T02:15:00.088Z,13.50
2023-02-12T02:17:45.156Z,16.98
2023-02-12T02:20:37.638Z,12.45
2023-02-12T02:23:23.308Z,12.05
2023-02-12T02:26:08.357Z,10.20
2023-02-12T02:29:14.377Z,12.73
2023-02-12T02:31:50.151Z,12.75
2023-02-12T02:34:39.663Z,11.00
2023-02-12T02:37:13.531Z,12.18
2023-02-12T02:40:17.401Z,13.98
2023-02-12T02:42:45.129Z,10.70
2023-02-12T02:45:16.723Z,12.40
2023-02-12T02:47:54.160Z,11.93
2023-02-12T02:50:26.138Z,11.60
2023-02-12T02:53:01.937Z,11.18
2023-02-12T02:55:36.954Z,12.57
2023-02-12T02:58:15.125Z,10.13
2023-02-12T03:00:57.495Z,11.68
2023-02-12T03:03:34.446Z,10.75
2023-02-12T03:06:14.059Z,11.30
2023-02-12T03:08:51.025Z,12.17
2023-02-12T03:11:27.740Z,13.48
2023-02-12T03:14:02.859Z,12.25
2023-02-12T03:16:43.706Z,11.90
2023-02-12T03:19:21.589Z,12.65
2023-02-12T03:22:02.317Z,11.80
2023-02-12T03:25:05.723Z,11.55
2023-02-12T03:27:42.165Z,13.32
2023-02-12T03:30:10.609Z,11.15
2023-02-12T03:33:07.890Z,15.88
2023-02-12T03:36:03.466Z,12.77
2023-02-12T03:38:39.069Z,12.70
2023-02-12T03:41:18.358Z,15.32
2023-02-12T03:43:52.958Z,12.52
2023-02-12T03:46:55.800Z,12.80
2023-02-12T03:49:27.467Z,14.57
2023-02-12T03:51:55.335Z,12.40
2023-02-12T03:54:23.402Z,12.80
2023-02-12T03:57:03.845Z,15.98
2023-02-12T03:59:31.878Z,12.65
2023-02-12T04:01:59.920Z,12.80
2023-02-12T04:04:28.530Z,14.68
2023-02-12T04:06:56.649Z,17.92
2023-02-12T04:09:26.925Z,13.30
2023-02-12T04:12:02.863Z,12.75
2023-02-12T04:15:15.439Z,14.93
2023-02-12T04:18:25.088Z,12.13
2023-02-12T04:21:46.498Z,11.95
2023-02-12T04:24:14.277Z,9.43
2023-02-12T04:27:23.207Z,14.20
2023-02-12T04:30:03.358Z,14.07
2023-02-12T04:32:34.125Z,12.75
2023-02-12T04:35:24.082Z,12.55
2023-02-12T04:38:02.605Z,14.68
2023-02-12T04:40:31.212Z,10.93
2023-02-12T04:42:58.713Z,12.70
2023-02-12T04:45:33.204Z,10.48
2023-02-12T04:48:01.493Z,14.18
2023-02-12T04:50:39.097Z,12.00
2023-02-12T04:53:07.609Z,12.57
2023-02-12T04:55:35.178Z,14.03
2023-02-12T04:58:02.919Z,12.98
2023-02-12T05:00:30.889Z,12.18
2023-02-12T05:02:58.771Z,14.02
2023-02-12T05:05:27.407Z,14.60
2023-02-12T05:07:55.318Z,13.33
2023-02-12T05:10:23.486Z,13.23
2023-02-12T05:12:55.069Z,11.12
2023-02-12T05:15:23.322Z,10.85
2023-02-12T05:17:50.890Z,13.05
2023-02-12T05:20:18.500Z,14.53
2023-02-12T05:22:46.293Z,12.05
2023-02-12T05:25:13.837Z,13.98
2023-02-12T05:27:41.340Z,12.10
2023-02-12T05:30:09.685Z,14.73
2023-02-12T05:32:37.246Z,14.90
2023-02-12T05:35:05.314Z,16.25
2023-02-12T05:37:36.329Z,12.32
2023-02-12T05:40:05.794Z,13.48
2023-02-12T05:42:33.632Z,13.10
2023-02-12T05:45:01.120Z,12.10
2023-02-12T05:47:28.648Z,12.55
2023-02-12T05:49:56.458Z,13.68
2023-02-12T05:52:23.982Z,13.80
2023-02-12T05:54:51.539Z,11.65
2023-02-12T05:57:19.614Z,15.13
2023-02-12T05:59:47.134Z,12.65
2023-02-12T06:02:14.688Z,14.10
2023-02-12T06:04:42.513Z,15.05
2023-02-12T06:07:09.992Z,14.02
2023-02-12T06:09:37.497Z,12.77
2023-02-12T06:12:05.480Z,13.35
2023-02-12T06:14:33.087Z,12.40
2023-02-12T06:17:00.870Z,14.80
2023-02-12T06:19:28.773Z,13.68
2023-02-12T06:21:56.246Z,13.80
2023-02-12T06:24:24.373Z,12.57
2023-02-12T06:26:52.724Z,12.10
2023-02-12T06:29:21.387Z,15.35
2023-02-12T06:31:49.314Z,13.85
2023-02-12T06:34:19.994Z,13.80
2023-02-12T06:36:48.143Z,12.85
2023-02-12T06:39:16.964Z,11.23
2023-02-12T06:41:47.449Z,12.93
2023-02-12T06:44:15.183Z,11.82
2023-02-12T06:46:42.802Z,14.10
2023-02-12T06:49:12.786Z,11.80
2023-02-12T06:51:41.527Z,12.15
2023-02-12T06:54:14.425Z,10.35
2023-02-12T06:56:42.462Z,13.07
2023-02-12T06:59:14.276Z,11.67
2023-02-12T07:01:42.212Z,14.25
2023-02-12T07:04:11.028Z,13.35
2023-02-12T07:06:38.896Z,13.20
2023-02-12T07:09:06.745Z,10.02
2023-02-12T07:11:38.061Z,13.50
2023-02-12T07:14:07.295Z,13.32
2023-02-12T07:16:35.268Z,12.10
2023-02-12T07:19:02.856Z,11.50
2023-02-12T07:21:32.124Z,10.38
2023-02-12T07:24:00.255Z,12.10
2023-02-12T07:26:27.929Z,13.82
2023-02-12T07:28:58.659Z,12.00
2023-02-12T07:31:26.757Z,12.02
2023-02-12T07:33:56.417Z,12.30
2023-02-12T07:36:25.047Z,11.83
2023-02-12T07:38:54.784Z,9.98
2023-02-12T07:41:24.961Z,10.73
2023-02-12T07:44:01.100Z,10.20
2023-02-12T07:46:33.992Z,12.93
2023-02-12T07:49:05.487Z,9.93
2023-02-12T07:51:35.024Z,9.80
2023-02-12T07:54:03.233Z,10.30
2023-02-12T07:56:35.320Z,10.35
2023-02-12T07:59:08.162Z,9.13
2023-02-12T08:01:50.459Z,9.27
2023-02-12T08:04:21.212Z,10.82
2023-02-12T08:06:51.085Z,8.95
2023-02-12T08:09:22.493Z,8.13
2023-02-12T08:11:50.222Z,8.25
2023-02-12T08:14:20.091Z,10.97
2023-02-12T08:16:49.506Z,9.80
2023-02-12T08:19:21.745Z,9.48
2023-02-12T08:21:53.362Z,9.32
2023-02-12T08:24:22.287Z,8.75
2023-02-12T08:26:50.914Z,8.97
2023-02-12T08:29:24.596Z,7.80
2023-02-12T08:32:00.586Z,9.55
2023-02-12T08:34:31.879Z,11.80
2023-02-12T08:37:00.515Z,9.98
2023-02-12T08:39:30.115Z,8.27
2023-02-12T08:41:59.586Z,10.32
2023-02-12T08:44:27.560Z,8.73
2023-02-12T08:46:58.182Z,9.13
2023-02-12T08:49:28.257Z,8.25
2023-02-12T08:51:58.317Z,8.63
2023-02-12T08:54:28.423Z,11.15
2023-02-12T08:57:01.339Z,8.90
2023-02-12T08:59:29.332Z,8.20
2023-02-12T09:01:57.205Z,8.30
2023-02-12T09:04:27.155Z,9.07
2023-02-12T09:06:55.509Z,17.55
2023-02-12T09:09:23.690Z,6.68
2023-02-12T09:11:51.398Z,6.20
2023-02-12T09:14:24.078Z,8.95
2023-02-12T09:16:53.349Z,6.33
2023-02-12T09:19:21.304Z,9.23
2023-02-12T09:21:55.490Z,13.62
2023-02-12T09:24:24.852Z,9.93
2023-02-12T09:26:52.411Z,8.50
2023-02-12T09:29:19.938Z,7.97
2023-02-12T09:31:47.970Z,10.30
2023-02-12T09:34:15.605Z,8.70
2023-02-12T09:36:43.121Z,8.60
2023-02-12T09:39:10.990Z,7.18
2023-02-12T09:41:38.461Z,8.97
2023-02-12T09:44:18.029Z,7.93
2023-02-12T09:46:55.529Z,8.75
2023-02-12T09:49:49.042Z,9.02
2023-02-12T09:52:20.251Z,9.82
2023-02-12T09:54:49.537Z,8.87
2023-02-12T09:57:31.433Z,9.18
2023-02-12T10:00:05.238Z,7.60
2023-02-12T10:02:36.807Z,10.60
2023-02-12T10:05:11.948Z,11.48
2023-02-12T10:08:18.608Z,11.73
2023-02-12T10:11:12.862Z,7.45
2023-02-12T10:13:53.951Z,8.57
2023-02-12T10:16:27.495Z,10.00
2023-02-12T10:19:29.463Z,9.27
2023-02-12T10:22:37.521Z,7.23
2023-02-12T10:25:26.976Z,7.43
2023-02-12T10:27:59.954Z,7.70
2023-02-12T10:30:50.195Z,7.32
2023-02-12T10:33:25.128Z,8.15
2023-02-12T10:36:21.803Z,6.00
2023-02-12T10:38:55.720Z,6.97
2023-02-12T10:41:27.530Z,6.00
2023-02-12T10:43:55.443Z,6.32
2023-02-12T10:46:23.081Z,7.03
2023-02-12T10:48:54.358Z,8.30
2023-02-12T10:52:03.401Z,7.65
2023-02-12T10:55:01.417Z,8.15
2023-02-12T10:57:33.148Z,7.07
2023-02-12T11:00:26.201Z,5.40
2023-02-12T11:03:12.400Z,6.70
2023-02-12T11:05:43.193Z,6.35
2023-02-12T11:08:29.952Z,6.50
2023-02-12T11:11:08.884Z,8.82
2023-02-12T11:13:39.163Z,6.20
2023-02-12T11:16:07.548Z,6.47
2023-02-12T11:18:36.720Z,6.45
2023-02-12T11:21:12.595Z,6.57
2023-02-12T11:23:45.229Z,6.40
2023-02-12T11:26:19.339Z,6.53
2023-02-12T11:29:00.942Z,5.47
2023-02-12T11:31:35.143Z,6.37
2023-02-12T11:34:19.738Z,5.53
2023-02-12T11:36:53.381Z,6.90
2023-02-12T11:39:28.184Z,5.05
2023-02-12T11:41:58.706Z,4.63
2023-02-12T11:44:34.479Z,5.87
2023-02-12T11:47:10.554Z,27.55
2023-02-12T11:49:44.308Z,27.87
2023-02-12T11:52:23.373Z,21.77
2023-02-12T11:54:53.462Z,18.80
2023-02-12T11:57:42.904Z,39.65
2023-02-12T12:00:16.964Z,81.65
2023-02-12T12:02:56.356Z,208.77
2023-02-12T12:05:31.748Z,116.95
2023-02-12T12:08:05.608Z,52.87
2023-02-12T12:11:01.997Z,59.75
2023-02-12T12:13:39.150Z,79.10
2023-02-12T12:16:36.311Z,31.00
2023-02-12T12:19:30.137Z,82.53
2023-02-12T12:22:16.932Z,58.90
2023-02-12T12:24:51.967Z,62.85
2023-02-12T12:27:50.088Z,32.72
2023-02-12T12:30:45.802Z,7.32
2023-02-12T12:33:24.782Z,6.03
2023-02-12T12:36:03.343Z,6.73
2023-02-12T12:39:05.865Z,6.55
2023-02-12T12:42:05.623Z,6.32
2023-02-12T12:44:57.707Z,6.25
2023-02-12T12:47:58.873Z,7.07
2023-02-12T12:50:59.379Z,5.77
2023-02-12T12:53:48.892Z,5.80
2023-02-12T12:56:29.544Z,6.53
2023-02-12T12:58:59.997Z,6.15
2023-02-12T13:01:49.470Z,5.50
2023-02-12T13:04:41.623Z,6.03
2023-02-12T13:07:21.383Z,7.37
2023-02-12T13:10:06.434Z,5.72
2023-02-12T13:12:52.304Z,5.53
2023-02-12T13:15:30.073Z,6.85
2023-02-12T13:18:31.634Z,8.47
2023-02-12T13:21:20.489Z,6.97
2023-02-12T13:23:59.390Z,4.50
2023-02-12T13:26:32.081Z,5.55
2023-02-12T13:29:23.211Z,7.97
2023-02-12T13:31:58.272Z,4.83
2023-02-12T13:34:28.849Z,4.80
2023-02-12T13:36:59.119Z,5.00
2023-02-12T13:39:33.867Z,5.03
2023-02-12T13:42:14.461Z,5.37
2023-02-12T13:44:47.448Z,5.77
2023-02-12T13:47:30.623Z,4.93
2023-02-12T13:50:14.111Z,5.00
2023-02-12T13:52:54.048Z,4.90
2023-02-12T13:55:32.661Z,7.22
2023-02-12T13:58:40.567Z,4.67
2023-02-12T14:01:12.229Z,6.00
2023-02-12T14:03:40.717Z,7.12
2023-02-12T14:06:08.217Z,5.22
2023-02-12T14:08:42.279Z,5.05
2023-02-12T14:11:13.827Z,5.97
2023-02-12T14:14:07.794Z,6.97
2023-02-12T14:16:39.595Z,6.90
2023-02-12T14:19:44.745Z,7.07
2023-02-12T14:22:33.849Z,5.43
2023-02-12T14:25:23.106Z,7.47
2023-02-12T14:27:58.210Z,5.40
2023-02-12T14:30:40.484Z,7.40
2023-02-12T14:33:08.345Z,5.35
2023-02-12T14:35:43.887Z,7.90
2023-02-12T14:38:11.670Z,6.20
2023-02-12T14:40:47.282Z,6.65
2023-02-12T14:43:33.963Z,8.18
2023-02-12T14:46:23.628Z,6.28
2023-02-12T14:49:05.710Z,6.15
2023-02-12T14:51:51.202Z,7.23
2023-02-12T14:54:37.092Z,5.47
2023-02-12T14:57:12.524Z,7.93
2023-02-12T14:59:43.630Z,5.55
2023-02-12T15:02:24.862Z,6.85
2023-02-12T15:04:56.611Z,7.07
2023-02-12T15:07:46.266Z,8.48
2023-02-12T15:10:18.535Z,7.70
2023-02-12T15:13:18.849Z,5.85
2023-02-12T15:15:52.322Z,8.98
2023-02-12T15:18:30.905Z,8.67
2023-02-12T15:21:14.051Z,8.00
2023-02-12T15:23:44.329Z,7.22
2023-02-12T15:26:24.656Z,6.12
2023-02-12T15:28:53.638Z,10.38
2023-02-12T15:31:29.797Z,9.40
2023-02-12T15:34:00.714Z,8.70
2023-02-12T15:36:33.111Z,7.87
2023-02-12T15:39:05.042Z,8.43
2023-02-12T15:41:32.769Z,7.00
2023-02-12T15:44:02.028Z,11.47
2023-02-12T15:46:30.084Z,9.48
2023-02-12T15:48:58.452Z,8.88
2023-02-12T15:51:34.910Z,10.40
2023-02-12T15:54:06.701Z,9.05
2023-02-12T15:56:36.377Z,10.37
2023-02-12T15:59:04.626Z,9.98
2023-02-12T16:01:35.339Z,9.30
2023-02-12T16:04:06.228Z,12.73
2023-02-12T16:06:36.912Z,8.77
2023-02-12T16:09:17.022Z,12.50
2023-02-12T16:11:47.099Z,11.35
2023-02-12T16:14:22.708Z,8.07
2023-02-12T16:16:52.907Z,7.80
2023-02-12T16:19:25.283Z,12.82
2023-02-12T16:22:08.002Z,9.00
2023-02-12T16:24:40.119Z,11.52
2023-02-12T16:27:16.086Z,8.02
2023-02-12T16:30:14.952Z,12.75
2023-02-12T16:32:44.285Z,11.07
2023-02-12T16:35:12.206Z,11.40
2023-02-12T16:37:39.749Z,11.18
2023-02-12T16:40:07.231Z,12.02
2023-02-12T16:42:35.208Z,11.35
2023-02-12T16:45:28.433Z,9.55
2023-02-12T16:48:10.246Z,10.73
2023-02-12T16:50:48.319Z,12.18
2023-02-12T16:53:25.145Z,13.50
2023-02-12T16:55:53.057Z,12.43
2023-02-12T16:58:20.942Z,12.70
2023-02-12T17:00:49.452Z,12.03
2023-02-12T17:03:17.815Z,9.75
2023-02-12T17:05:45.981Z,9.32
2023-02-12T17:08:14.862Z,9.38
2023-02-12T17:10:42.485Z,15.90
2023-02-12T17:13:11.210Z,15.97
2023-02-12T17:15:51.082Z,16.00
2023-02-12T17:18:19.832Z,12.57
2023-02-12T17:20:56.905Z,14.52
2023-02-12T17:23:25.172Z,16.73
2023-02-12T17:25:52.851Z,13.70
2023-02-12T17:28:21.201Z,15.07
2023-02-12T17:30:49.529Z,11.82
2023-02-12T17:33:17.095Z,10.48
2023-02-12T17:35:45.179Z,11.05
2023-02-12T17:38:13.046Z,10.53
2023-02-12T17:40:40.702Z,14.45
2023-02-12T17:43:08.473Z,13.30
2023-02-12T17:45:40.497Z,11.60
2023-02-12T17:48:09.026Z,10.55
2023-02-12T17:50:36.888Z,12.93
2023-02-12T17:53:04.514Z,9.80
2023-02-12T17:55:32.953Z,9.30
2023-02-12T17:58:03.221Z,8.13
2023-02-12T18:00:30.799Z,9.43
2023-02-12T18:02:58.803Z,9.20
2023-02-12T18:05:26.445Z,9.10
2023-02-12T18:07:54.497Z,5.75
2023-02-12T18:10:22.580Z,11.52
2023-02-12T18:12:50.150Z,11.27
2023-02-12T18:15:17.978Z,8.60
2023-02-12T18:17:45.835Z,7.45
2023-02-12T18:20:13.628Z,7.07
2023-02-12T18:22:41.395Z,10.70
2023-02-12T18:25:09.298Z,12.05
2023-02-12T18:27:39.537Z,14.37
2023-02-12T18:30:08.598Z,13.32
2023-02-12T18:32:36.949Z,9.40
2023-02-12T18:35:05.578Z,13.07
2023-02-12T18:37:33.918Z,15.73
2023-02-12T18:40:01.935Z,15.43
2023-02-12T18:42:32.710Z,13.70
2023-02-12T18:45:00.261Z,13.93
2023-02-12T18:47:28.160Z,15.52
2023-02-12T18:49:57.984Z,11.55
2023-02-12T18:52:25.970Z,15.03
2023-02-12T18:54:54.022Z,9.50
2023-02-12T18:57:21.663Z,7.97
2023-02-12T18:59:49.235Z,7.55
2023-02-12T19:02:17.063Z,11.32
2023-02-12T19:04:44.693Z,10.23
2023-02-12T19:07:12.195Z,9.48
2023-02-12T19:09:40.091Z,11.23
2023-02-12T19:12:07.916Z,13.68
2023-02-12T19:14:35.483Z,12.15
2023-02-12T19:17:03.356Z,12.20
2023-02-12T19:19:30.982Z,11.60
2023-02-12T19:21:58.456Z,13.90
2023-02-12T19:24:30.499Z,13.80
2023-02-12T19:27:05.341Z,16.08
2023-02-12T19:29:33.117Z,22.37
2023-02-12T19:32:00.918Z,19.37
2023-02-12T19:34:28.622Z,16.98
2023-02-12T19:36:56.446Z,18.52
2023-02-12T19:39:24.732Z,19.92
2023-02-12T19:41:52.448Z,19.53
2023-02-12T19:44:25.253Z,15.00
2023-02-12T19:46:53.181Z,19.48
2023-02-12T19:49:24.993Z,14.35
2023-02-12T19:51:52.926Z,14.87
2023-02-12T19:54:22.606Z,12.87
2023-02-12T19:56:52.942Z,12.23
2023-02-12T19:59:22.923Z,13.93
2023-02-12T20:01:51.264Z,9.18
2023-02-12T20:04:21.654Z,13.75
2023-02-12T20:06:51.078Z,13.17
2023-02-12T20:09:20.992Z,12.18
2023-02-12T20:11:48.652Z,12.70
2023-02-12T20:14:16.241Z,13.15
2023-02-12T20:16:46.700Z,14.73
2023-02-12T20:19:27.581Z,13.57
2023-02-12T20:21:57.536Z,15.68
2023-02-12T20:24:30.550Z,14.87
2023-02-12T20:26:59.947Z,14.57
2023-02-12T20:29:28.045Z,13.93
2023-02-12T20:31:56.279Z,16.37
2023-02-12T20:34:24.353Z,19.27
2023-02-12T20:36:52.114Z,14.90
2023-02-12T20:39:20.908Z,14.63
2023-02-12T20:41:49.873Z,14.00
2023-02-12T20:44:20.622Z,13.20
2023-02-12T20:46:50.921Z,10.55
2023-02-12T20:49:22.435Z,12.43
2023-02-12T20:51:50.754Z,10.45
2023-02-12T20:54:18.382Z,11.77
2023-02-12T20:56:46.390Z,10.57
2023-02-12T20:59:13.978Z,12.90
2023-02-12T21:01:42.692Z,10.75
2023-02-12T21:04:14.032Z,7.93
2023-02-12T21:06:42.417Z,7.35
2023-02-12T21:09:11.943Z,6.67
2023-02-12T21:11:42.252Z,9.93
2023-02-12T21:14:21.740Z,9.40
2023-02-12T21:16:51.012Z,10.73
2023-02-12T21:19:19.330Z,12.18
2023-02-12T21:21:47.114Z,11.13
2023-02-12T21:24:18.395Z,11.68
2023-02-12T21:26:46.238Z,10.73
2023-02-12T21:29:14.372Z,8.82
2023-02-12T21:31:44.391Z,10.98
2023-02-12T21:34:21.176Z,10.87
2023-02-12T21:36:50.456Z,11.48
2023-02-12T21:39:25.124Z,11.77
2023-02-12T21:42:00.151Z,10.55
2023-02-12T21:44:29.122Z,11.60
2023-02-12T21:46:57.742Z,10.50
2023-02-12T21:49:26.590Z,8.77
2023-02-12T21:51:57.640Z,11.48
2023-02-12T21:54:26.350Z,8.73
2023-02-12T21:56:55.264Z,8.13
2023-02-12T21:59:24.827Z,7.90
2023-02-12T22:01:55.448Z,8.90
2023-02-12T22:04:23.288Z,9.27
2023-02-12T22:06:52.825Z,8.85
2023-02-12T22:09:22.381Z,13.55
2023-02-12T22:11:52.501Z,11.50
2023-02-12T22:14:21.298Z,11.07
2023-02-12T22:16:49.167Z,8.25
2023-02-12T22:19:17.193Z,10.10
2023-02-12T22:21:44.832Z,10.63
2023-02-12T22:24:15.408Z,9.27
2023-02-12T22:26:44.660Z,10.02
2023-02-12T22:29:14.874Z,12.88
2023-02-12T22:31:44.869Z,9.45
2023-02-12T22:34:15.308Z,8.32
2023-02-12T22:36:43.376Z,7.23
2023-02-12T22:39:13.117Z,8.45
2023-02-12T22:41:42.218Z,9.52
2023-02-12T22:44:12.115Z,11.45
2023-02-12T22:46:40.711Z,9.60
2023-02-12T22:49:08.205Z,9.87
2023-02-12T22:51:38.944Z,9.82
2023-02-12T22:54:07.908Z,9.55
2023-02-12T22:56:35.716Z,8.85
2023-02-12T22:59:03.571Z,7.22
2023-02-12T23:01:31.478Z,9.40
2023-02-12T23:03:59.693Z,7.45
2023-02-12T23:06:29.583Z,7.15
2023-02-12T23:09:00.322Z,7.70
2023-02-12T23:11:30.140Z,8.60
2023-02-12T23:13:58.152Z,9.77
2023-02-12T23:16:26.129Z,7.28
2023-02-12T23:18:56.561Z,8.07
2023-02-12T23:21:26.062Z,9.32
2023-02-12T23:23:54.215Z,10.75
2023-02-12T23:26:22.502Z,8.67
2023-02-12T23:28:50.081Z,9.73
2023-02-12T23:31:18.163Z,6.95
2023-02-12T23:33:45.697Z,8.98
2023-02-12T23:36:13.392Z,7.50
2023-02-12T23:38:41.193Z,9.17
2023-02-12T23:41:08.735Z,7.97
2023-02-12T23:43:36.351Z,12.57
2023-02-12T23:46:04.580Z,8.88
2023-02-12T23:48:32.211Z,11.77
2023-02-12T23:50:59.951Z,6.37
2023-02-12T23:53:27.973Z,10.93
2023-02-12T23:55:55.798Z,8.80
2023-02-12T23:58:23.510Z,9.13
